Terminal Aerodrome Forecast
Issued by NWS Shreveport, LA

Home | Current Version | Previous Version | Text Only | Print | Product List | Glossary On
Versions: 1 2 3 4 5 6 7 8 9 10 11 12 13 14 15 16 17
000
FTUS44 KSHV 221212 AAA
TAFELD
TAF AMD
KELD 221212Z 2212/2312 05010KT P6SM VCSH SCT010 OVC020
      TEMPO 2212/2216 -SHRA BKN007 OVC012
     FM221800 10012KT 6SM SHRA BKN015 OVC030
     FM230000 12012G20KT 4SM SHRA BKN010 OVC020
     FM230600 15012KT 3SM SHRA OVC007=

USA.gov is the U.S. government's official web portal to all federal, state and local government web resources and services.